createdAt,value
2024-05-09T05:17:10.562Z,98698.00
2024-05-09T05:19:37.203Z,98691.94
2024-05-09T05:22:03.836Z,98701.91
2024-05-09T05:24:30.297Z,98714.59
2024-05-09T05:26:56.812Z,98703.75
2024-05-09T05:29:23.361Z,98745.94
2024-05-09T05:31:49.968Z,98753.94
2024-05-09T05:34:16.535Z,98749.66
2024-05-09T05:36:43.027Z,98764.31
2024-05-09T05:39:09.504Z,98774.34
2024-05-09T05:41:36.079Z,98799.41
2024-05-09T05:44:02.606Z,98803.47
2024-05-09T05:46:29.146Z,98809.38
2024-05-09T05:48:55.754Z,98824.03
2024-05-09T05:51:22.346Z,98806.38
2024-05-09T05:53:48.923Z,98810.88
2024-05-09T05:56:15.503Z,98808.53
2024-05-09T05:58:42.014Z,98825.97
2024-05-09T06:01:08.508Z,98861.28
2024-05-09T06:03:35.137Z,98884.25
2024-05-09T06:06:02.657Z,98889.97
2024-05-09T06:08:30.443Z,98854.81
2024-05-09T06:10:57.224Z,98876.25
2024-05-09T06:13:23.802Z,98922.19
2024-05-09T06:15:50.284Z,98940.41
2024-05-09T06:18:17.063Z,98956.63
2024-05-09T06:20:44.386Z,98954.88
2024-05-09T06:23:12.852Z,98950.38
2024-05-09T06:25:40.023Z,98963.81
2024-05-09T06:28:06.829Z,98939.41
2024-05-09T06:33:03.973Z,98973.53
2024-05-09T06:35:30.938Z,98981.25
2024-05-09T06:37:57.625Z,98974.94
2024-05-09T06:40:29.292Z,98972.38
2024-05-09T06:43:00.838Z,98999.44
2024-05-09T06:45:27.325Z,98993.88
2024-05-09T06:47:53.977Z,99003.25
2024-05-09T06:50:24.196Z,98999.56
2024-05-09T06:52:54.434Z,98996.78
2024-05-09T06:55:20.961Z,99038.06
2024-05-09T06:57:47.432Z,99037.56
2024-05-09T07:00:22.700Z,99041.19
2024-05-09T07:02:57.101Z,99049.66
2024-05-09T07:05:24.241Z,99058.22
2024-05-09T07:07:50.864Z,99065.75
2024-05-09T07:10:22.179Z,99063.88
2024-05-09T07:12:55.345Z,99071.88
2024-05-09T07:15:21.830Z,99094.97
2024-05-09T07:17:48.551Z,99107.34
2024-05-09T07:20:23.137Z,99109.78
2024-05-09T07:22:54.451Z,99116.72
2024-05-09T07:25:20.951Z,99151.09
2024-05-09T07:27:47.439Z,99146.22
2024-05-09T07:30:20.346Z,99159.19
2024-05-09T07:32:53.649Z,99149.16
2024-05-09T07:35:20.365Z,99152.09
2024-05-09T07:37:46.995Z,99160.16
2024-05-09T07:40:21.298Z,99169.78
2024-05-09T07:42:54.233Z,99166.16
2024-05-09T07:45:39.878Z,99155.97
2024-05-09T07:52:32.492Z,99167.22
2024-05-09T07:53:39.590Z,99155.13
2024-05-09T07:56:11.410Z,99157.34
2024-05-09T07:58:38.776Z,99147.97
2024-05-09T08:01:05.870Z,99154.59
2024-05-09T08:03:32.724Z,99148.75
2024-05-09T08:05:59.362Z,99152.53
2024-05-09T08:08:26.565Z,99137.63
2024-05-09T08:10:53.112Z,99144.09
2024-05-09T08:13:19.766Z,99144.47
2024-05-09T08:15:46.284Z,99150.34
2024-05-09T08:18:12.949Z,99151.56
2024-05-09T08:20:40.436Z,99147.69
2024-05-09T08:23:07.349Z,99156.31
2024-05-09T08:25:33.894Z,99129.13
2024-05-09T08:28:03.117Z,99143.88
2024-05-09T08:30:35.837Z,99159.31
2024-05-09T08:33:05.000Z,99155.09
2024-05-09T08:35:32.388Z,99155.13
2024-05-09T08:37:59.045Z,99156.75
2024-05-09T08:40:33.295Z,99161.41
2024-05-09T08:43:02.688Z,99143.88
2024-05-09T08:45:29.566Z,99154.59
2024-05-09T08:47:56.497Z,99145.53
2024-05-09T08:50:32.046Z,99156.13
2024-05-09T08:53:04.764Z,99156.31
2024-05-09T08:55:31.306Z,99156.56
2024-05-09T08:57:58.286Z,99160.03
2024-05-09T09:00:33.852Z,99168.28
2024-05-09T09:03:05.878Z,99157.16
2024-05-09T09:05:33.800Z,99159.06
2024-05-09T09:08:00.644Z,99145.22
2024-05-09T09:10:31.823Z,99140.66
2024-05-09T09:13:01.675Z,99159.84
2024-05-09T09:15:28.267Z,99155.81
2024-05-09T09:17:58.352Z,99156.97
2024-05-09T09:20:34.031Z,99157.78
2024-05-09T09:23:03.214Z,99158.09
2024-05-09T09:25:29.694Z,99155.81
2024-05-09T09:27:58.026Z,99153.88
2024-05-09T09:30:34.637Z,99159.19
2024-05-09T09:33:04.320Z,99155.38
2024-05-09T09:35:32.087Z,99134.34
2024-05-09T09:38:02.036Z,99146.47
2024-05-09T09:40:35.932Z,99146.53
2024-05-09T09:43:05.841Z,99157.69
2024-05-09T09:45:32.811Z,99152.38
2024-05-09T09:47:59.549Z,99132.47
2024-05-09T09:50:33.383Z,99153.94
2024-05-09T09:53:01.181Z,99155.06
2024-05-09T09:55:27.898Z,99130.06
2024-05-09T09:57:55.989Z,99158.50
2024-05-09T10:00:32.385Z,99157.34
2024-05-09T10:03:00.452Z,99139.16
2024-05-09T10:05:27.653Z,99151.56
2024-05-09T10:07:54.775Z,99135.09
2024-05-09T10:13:04.816Z,99147.69
2024-05-09T10:15:53.956Z,99145.75
2024-05-09T10:18:20.939Z,99143.03
2024-05-09T10:20:47.578Z,99146.25
2024-05-09T10:23:28.024Z,99143.97
2024-05-09T10:26:02.147Z,99146.56
2024-05-09T10:28:29.543Z,99140.91
2024-05-09T10:31:12.767Z,99145.13
2024-05-09T10:33:40.786Z,99148.53
2024-05-09T10:36:11.457Z,99136.59
2024-05-09T10:38:38.100Z,99138.56
2024-05-09T10:41:04.840Z,99132.06
2024-05-09T10:43:31.447Z,99120.81
2024-05-09T10:45:57.994Z,99127.00
2024-05-09T10:48:24.790Z,99115.69
2024-05-09T10:50:52.458Z,99116.31
2024-05-09T10:53:18.939Z,99120.88
2024-05-09T10:55:56.118Z,99123.84
2024-05-09T10:58:23.274Z,99122.88
2024-05-09T11:00:50.346Z,99127.09
2024-05-09T11:03:20.403Z,99103.25
2024-05-09T11:05:46.986Z,99119.34
2024-05-09T11:08:13.627Z,99116.97
2024-05-09T11:10:40.403Z,99120.88
2024-05-09T11:13:07.057Z,99115.59
2024-05-09T11:15:42.535Z,99102.50
2024-05-09T11:18:25.342Z,99109.47
2024-05-09T11:20:53.882Z,99114.06
2024-05-09T11:23:21.831Z,99107.16
2024-05-09T11:25:49.605Z,99087.94
2024-05-09T11:28:17.843Z,99100.13
2024-05-09T11:30:44.618Z,99095.31
2024-05-09T11:33:12.096Z,99088.34
2024-05-09T11:35:38.663Z,99068.63
2024-05-09T11:38:05.292Z,99090.78
2024-05-09T11:40:34.433Z,99089.41
2024-05-09T11:43:01.456Z,99087.94
2024-05-09T11:45:28.219Z,99079.50
2024-05-09T11:47:54.919Z,99086.06
2024-05-09T11:50:27.291Z,99077.97
2024-05-09T11:52:58.957Z,99083.72
2024-05-09T11:55:28.020Z,99063.75
2024-05-09T11:57:55.491Z,99079.44
2024-05-09T12:00:29.633Z,99079.53
2024-05-09T12:03:03.007Z,99075.44
2024-05-09T12:05:29.757Z,99071.38
2024-05-09T12:07:56.338Z,99075.50
2024-05-09T12:10:31.992Z,99073.56
2024-05-09T12:13:00.878Z,99045.56
2024-05-09T12:15:27.392Z,99062.63
2024-05-09T12:17:54.951Z,99059.31
2024-05-09T12:20:28.776Z,99061.69
2024-05-09T12:23:02.207Z,99059.56
2024-05-09T12:25:28.680Z,99055.69
2024-05-09T12:27:55.276Z,99039.94
2024-05-09T12:30:32.540Z,99059.94
2024-05-09T12:33:04.201Z,99051.84
2024-05-09T12:35:30.960Z,99050.13
2024-05-09T12:37:57.443Z,99049.75
2024-05-09T12:40:34.040Z,99037.72
2024-05-09T12:43:03.824Z,99029.44
2024-05-09T12:45:30.450Z,99042.50
2024-05-09T12:47:57.139Z,99035.38
2024-05-09T12:50:31.024Z,99030.16
2024-05-09T12:52:59.540Z,99034.06
2024-05-09T12:55:26.918Z,99031.94
2024-05-09T12:57:53.658Z,99031.06
2024-05-09T13:00:27.404Z,99018.94
2024-05-09T13:02:58.205Z,99019.81
2024-05-09T13:05:25.014Z,99025.41
2024-05-09T13:07:51.688Z,99031.19
2024-05-09T13:10:28.628Z,99007.16
2024-05-09T13:12:59.177Z,99010.34
2024-05-09T13:15:25.717Z,99013.69
2024-05-09T13:17:52.285Z,99001.09
2024-05-09T13:20:26.267Z,99011.94
2024-05-09T13:23:01.340Z,99007.44
2024-05-09T13:25:27.844Z,99012.31
2024-05-09T13:27:54.388Z,99005.53
2024-05-09T13:30:29.493Z,98997.06
2024-05-09T13:33:05.199Z,98987.66
2024-05-09T13:35:31.849Z,98988.59
2024-05-09T13:37:58.346Z,98972.56
2024-05-09T13:40:32.198Z,98989.38
2024-05-09T13:43:01.389Z,98974.56
2024-05-09T13:45:27.919Z,98967.66
2024-05-09T13:47:54.529Z,98984.66
2024-05-09T13:50:30.546Z,98966.03
2024-05-09T13:53:00.711Z,98979.75
2024-05-09T13:55:27.230Z,98978.22
2024-05-09T13:57:53.863Z,98966.78
2024-05-09T14:00:37.206Z,98969.69
2024-05-09T14:03:06.971Z,98961.28
2024-05-09T14:05:33.733Z,98969.28
2024-05-09T14:08:00.514Z,98966.22
2024-05-09T14:12:55.109Z,98965.84
2024-05-09T14:15:21.667Z,98964.34
2024-05-09T14:17:48.158Z,98960.69
2024-05-09T14:20:22.941Z,98971.19
2024-05-09T14:22:55.150Z,98952.72
2024-05-09T14:25:21.927Z,98952.53
2024-05-09T14:27:48.512Z,98943.06
2024-05-09T14:30:22.839Z,98948.38
2024-05-09T14:32:57.199Z,98947.47
2024-05-09T14:35:23.744Z,98935.75
2024-05-09T14:37:50.218Z,98936.66
2024-05-09T14:40:30.536Z,98942.22
2024-05-09T14:43:03.469Z,98921.66
2024-05-09T14:45:30.252Z,98939.47
2024-05-09T14:47:57.042Z,98928.69
2024-05-09T14:50:34.469Z,98925.66
2024-05-09T14:53:04.191Z,98913.09
2024-05-09T14:55:30.907Z,98920.75
2024-05-09T14:57:57.560Z,98920.59
2024-05-09T15:00:28.943Z,98919.25
2024-05-09T15:02:59.955Z,98921.00
2024-05-09T15:05:26.554Z,98919.16
2024-05-09T15:07:53.296Z,98921.03
2024-05-09T15:10:27.025Z,98914.56
2024-05-09T15:13:00.543Z,98909.69
2024-05-09T15:15:27.197Z,98906.94
2024-05-09T15:17:54.759Z,98914.47
2024-05-09T15:20:30.355Z,98904.06
2024-05-09T15:23:01.034Z,98901.38
2024-05-09T15:25:27.655Z,98889.16
2024-05-09T15:27:54.545Z,98902.63
2024-05-09T15:30:28.296Z,98879.94
2024-05-09T15:32:58.006Z,98896.59
2024-05-09T15:35:24.492Z,98879.44
2024-05-09T15:37:51.014Z,98890.28
2024-05-09T15:40:26.278Z,98886.50
2024-05-09T15:43:01.998Z,98891.81
2024-05-09T15:45:28.579Z,98882.31
2024-05-09T15:47:56.212Z,98883.56
2024-05-09T15:50:32.326Z,98887.41
2024-05-09T15:53:04.268Z,98875.94
2024-05-09T15:55:30.757Z,98859.41
2024-05-09T15:57:57.406Z,98869.03
2024-05-09T16:00:29.342Z,98871.16
2024-05-09T16:03:03.512Z,98857.66
2024-05-09T16:05:30.215Z,98871.84
2024-05-09T16:07:56.876Z,98879.94
2024-05-09T16:10:26.267Z,98862.63
2024-05-09T16:12:58.837Z,98864.50
2024-05-09T16:15:25.376Z,98864.97
2024-05-09T16:17:51.960Z,98866.38
2024-05-09T16:20:29.412Z,98855.44
2024-05-09T16:23:04.406Z,98868.41
2024-05-09T16:25:30.903Z,98866.81
2024-05-09T16:27:57.492Z,98865.31
2024-05-09T16:30:31.542Z,98852.78
2024-05-09T16:33:01.803Z,98863.72
2024-05-09T16:35:28.438Z,98847.41
2024-05-09T16:37:54.934Z,98861.63
2024-05-09T16:40:30.105Z,98839.72
2024-05-09T16:43:04.294Z,98865.63
2024-05-09T16:45:31.148Z,98863.13
2024-05-09T16:48:00.306Z,98843.53
2024-05-09T16:50:32.385Z,98848.09
2024-05-09T16:53:01.026Z,98863.75
2024-05-09T16:55:27.697Z,98845.13
2024-05-09T16:57:54.576Z,98861.06
2024-05-09T17:00:31.242Z,98858.06
2024-05-09T17:03:06.313Z,98857.34
2024-05-09T17:05:33.597Z,98846.94
2024-05-09T17:08:00.437Z,98856.53
2024-05-09T17:10:32.349Z,98848.09
2024-05-09T17:13:01.055Z,98857.34
2024-05-09T17:15:27.593Z,98856.53
2024-05-09T17:17:54.177Z,98860.50
2024-05-09T17:20:29.387Z,98852.97
2024-05-09T17:23:00.311Z,98856.44
2024-05-09T17:25:26.901Z,98843.75
2024-05-09T17:27:53.628Z,98862.03
2024-05-09T17:30:28.656Z,98847.47
2024-05-09T17:33:00.927Z,98848.34
2024-05-09T17:35:27.581Z,98835.75
2024-05-09T17:37:54.135Z,98852.25
2024-05-09T17:40:30.054Z,98848.53
2024-05-09T17:42:59.954Z,98857.75
2024-05-09T17:45:26.525Z,98856.31
2024-05-09T17:47:53.381Z,98853.25
2024-05-09T17:50:27.354Z,98841.75
2024-05-09T17:53:00.259Z,98848.50
2024-05-09T17:55:26.834Z,98843.41
2024-05-09T17:57:53.550Z,98835.03
2024-05-09T18:00:28.972Z,98841.25
2024-05-09T18:03:04.638Z,98839.25
2024-05-09T18:05:31.678Z,98839.69
2024-05-09T18:07:58.552Z,98845.75
2024-05-09T18:10:32.829Z,98838.56
2024-05-09T18:13:04.381Z,98838.94
2024-05-09T18:15:30.991Z,98838.19
2024-05-09T18:17:57.749Z,98831.28
2024-05-09T18:20:33.108Z,98821.34
2024-05-09T18:23:07.732Z,98832.81
2024-05-09T18:25:35.310Z,98821.28
2024-05-09T18:28:02.978Z,98827.38
2024-05-09T18:30:34.737Z,98822.78
2024-05-09T18:33:04.117Z,98827.34
2024-05-09T18:35:32.159Z,98829.63
2024-05-09T18:37:58.706Z,98830.41
2024-05-09T18:40:32.530Z,98836.56
2024-05-09T18:43:02.781Z,98827.38
2024-05-09T18:45:29.525Z,98828.06
2024-05-09T18:47:56.532Z,98827.13
2024-05-09T18:50:31.954Z,98819.22
2024-05-09T18:53:02.735Z,98799.16
2024-05-09T18:55:29.364Z,98812.03
2024-05-09T18:57:55.985Z,98813.28
2024-05-09T19:00:33.040Z,98811.31
2024-05-09T19:03:03.312Z,98806.69
2024-05-09T19:05:30.395Z,98836.53
2024-05-09T19:07:57.170Z,98827.19
2024-05-09T19:10:28.820Z,98816.22
2024-05-09T19:12:59.896Z,98799.97
2024-05-09T19:15:26.414Z,98807.50
2024-05-09T19:17:53.160Z,98816.00
2024-05-09T19:20:25.512Z,98786.78
2024-05-09T19:22:58.379Z,98799.81
2024-05-09T19:25:24.953Z,98803.25
2024-05-09T19:27:51.555Z,98792.91
2024-05-09T19:30:25.650Z,98787.66
2024-05-09T19:33:01.180Z,98784.75
2024-05-09T19:35:27.813Z,98782.34
2024-05-09T19:37:54.288Z,98776.00
2024-05-09T19:40:28.659Z,98784.44
2024-05-09T19:42:58.599Z,98762.06
2024-05-09T19:45:25.304Z,98759.31
2024-05-09T19:47:51.992Z,98770.34
2024-05-09T19:50:26.669Z,98758.91
2024-05-09T19:52:59.456Z,98768.59
2024-05-09T19:55:25.983Z,98768.31
2024-05-09T19:57:52.607Z,98772.09
2024-05-09T20:00:26.029Z,98768.50
2024-05-09T20:02:55.949Z,98760.38
2024-05-09T20:05:23.101Z,98749.06
2024-05-09T20:07:49.869Z,98745.75
2024-05-09T20:10:23.385Z,98744.94
2024-05-09T20:12:53.198Z,98732.22
2024-05-09T20:15:19.778Z,98737.25
2024-05-09T20:17:46.496Z,98727.88
2024-05-09T20:20:23.534Z,98752.78
2024-05-09T20:22:56.277Z,98733.25
2024-05-09T20:25:22.782Z,98748.16
2024-05-09T20:27:49.321Z,98749.00
2024-05-09T20:30:24.736Z,98752.94
2024-05-09T20:32:55.432Z,98746.78
2024-05-09T20:35:21.947Z,98740.63
2024-05-09T20:37:48.411Z,98721.38
2024-05-09T20:40:21.256Z,98724.13
2024-05-09T20:42:52.214Z,98722.22
2024-05-09T20:45:18.735Z,98715.25
2024-05-09T20:47:45.379Z,98705.91
2024-05-09T20:50:23.003Z,98689.84
2024-05-09T20:52:55.174Z,98698.81
2024-05-09T20:55:21.774Z,98698.25
2024-05-09T20:57:48.341Z,98685.59
2024-05-09T21:00:18.887Z,98685.38
2024-05-09T21:02:49.238Z,98675.13
2024-05-09T21:05:15.897Z,98661.25
2024-05-09T21:07:42.498Z,98654.44
2024-05-09T21:10:15.568Z,98675.97
2024-05-09T21:12:46.125Z,98682.19
2024-05-09T21:15:12.639Z,98682.81
2024-05-09T21:17:39.320Z,98688.84
2024-05-09T21:20:09.373Z,98675.41
2024-05-09T21:22:40.710Z,98663.25
2024-05-09T21:25:07.223Z,98673.56
2024-05-09T21:27:33.777Z,98677.00
2024-05-09T21:30:00.312Z,98669.22
2024-05-09T21:32:26.893Z,98663.00
2024-05-09T21:34:53.487Z,98651.88
2024-05-09T21:37:20.120Z,98656.72
2024-05-09T21:39:46.638Z,98679.63
2024-05-09T21:42:13.147Z,98686.44
2024-05-09T21:44:39.632Z,98686.13
2024-05-09T21:47:06.141Z,98705.56
2024-05-09T21:49:32.647Z,98693.94
2024-05-09T21:51:59.191Z,98688.19
2024-05-09T21:54:25.699Z,98665.09
2024-05-09T21:56:52.174Z,98673.72
2024-05-09T21:59:18.671Z,98687.41
2024-05-09T22:01:46.221Z,98689.31
2024-05-09T22:04:12.920Z,98685.81
2024-05-09T22:06:39.575Z,98680.75
2024-05-09T22:09:06.062Z,98681.13
2024-05-09T22:11:32.631Z,98661.09
2024-05-09T22:13:59.190Z,98661.41
2024-05-09T22:16:25.798Z,98644.06
2024-05-09T22:18:52.439Z,98635.25
2024-05-09T22:21:18.952Z,98629.50
2024-05-09T22:23:45.430Z,98634.03
2024-05-09T22:26:11.942Z,98637.06
2024-05-09T22:28:38.411Z,98645.09
2024-05-09T22:31:05.097Z,98626.97
2024-05-09T22:33:31.725Z,98617.63
2024-05-09T22:35:58.266Z,98617.72
2024-05-09T22:38:24.739Z,98616.00
2024-05-09T22:40:51.283Z,98602.56
2024-05-09T22:43:22.780Z,98601.50
2024-05-09T22:45:51.092Z,98585.19
2024-05-09T22:48:18.146Z,98597.50
2024-05-09T22:50:44.730Z,98609.75
2024-05-09T22:53:12.320Z,98614.78
2024-05-09T22:55:38.824Z,98606.03
2024-05-09T22:58:05.430Z,98614.28
2024-05-09T23:00:33.193Z,98615.66
2024-05-09T23:03:00.974Z,98615.88
2024-05-09T23:05:28.227Z,98597.75
2024-05-09T23:07:55.066Z,98588.81
2024-05-09T23:10:28.326Z,98576.44
2024-05-09T23:13:01.614Z,98585.53
2024-05-09T23:15:28.365Z,98587.53
2024-05-09T23:17:55.091Z,98572.13
2024-05-09T23:20:29.600Z,98562.88
2024-05-09T23:23:03.121Z,98562.81
2024-05-09T23:25:29.603Z,98558.47
2024-05-09T23:27:56.107Z,98576.94
2024-05-09T23:30:33.029Z,98585.06
2024-05-09T23:33:04.582Z,98568.50
2024-05-09T23:35:31.186Z,98585.03
2024-05-09T23:37:57.712Z,98573.19
2024-05-09T23:40:34.637Z,98592.59
2024-05-09T23:43:05.305Z,98593.75
2024-05-09T23:45:31.889Z,98612.03
2024-05-09T23:47:58.554Z,98608.56
2024-05-09T23:50:33.271Z,98592.44
2024-05-09T23:53:03.070Z,98594.13
2024-05-09T23:55:29.609Z,98579.84
2024-05-09T23:57:56.157Z,98567.41
